sensor_id;sensor_type;location;lat;lon;timestamp;pressure;altitude;pressure_sealevel;temperature;humidity
61786;BME280;47692;53.714;11.372;2023-03-04T00:01:05;101320.50;;;2.86;100.00
61786;BME280;47692;53.714;11.372;2023-03-04T00:03:30;101316.19;;;2.87;100.00
61786;BME280;47692;53.714;11.372;2023-03-04T00:05:55;101310.22;;;2.89;100.00
61786;BME280;47692;53.714;11.372;2023-03-04T00:08:20;101305.06;;;2.89;100.00
61786;BME280;47692;53.714;11.372;2023-03-04T00:10:46;101299.06;;;2.90;100.00
61786;BME280;47692;53.714;11.372;2023-03-04T00:13:11;101297.38;;;2.93;100.00
61786;BME280;47692;53.714;11.372;2023-03-04T00:15:37;101296.53;;;2.94;100.00
61786;BME280;47692;53.714;11.372;2023-03-04T00:18:02;101289.75;;;2.99;100.00
61786;BME280;47692;53.714;11.372;2023-03-04T00:20:27;101288.88;;;2.98;100.00
61786;BME280;47692;53.714;11.372;2023-03-04T00:22:53;101294.09;;;3.01;100.00
61786;BME280;47692;53.714;11.372;2023-03-04T00:25:18;101296.69;;;3.03;100.00
61786;BME280;47692;53.714;11.372;2023-03-04T00:27:43;101295.78;;;3.01;100.00
61786;BME280;47692;53.714;11.372;2023-03-04T00:30:09;101293.28;;;3.04;100.00
61786;BME280;47692;53.714;11.372;2023-03-04T00:32:34;101282.97;;;3.04;100.00
61786;BME280;47692;53.714;11.372;2023-03-04T00:35:00;101283.78;;;3.03;100.00
61786;BME280;47692;53.714;11.372;2023-03-04T00:37:25;101276.06;;;3.03;100.00
61786;BME280;47692;53.714;11.372;2023-03-04T00:39:50;101277.84;;;3.07;100.00
61786;BME280;47692;53.714;11.372;2023-03-04T00:42:16;101276.06;;;3.04;100.00
61786;BME280;47692;53.714;11.372;2023-03-04T00:44:41;101265.81;;;3.06;100.00
61786;BME280;47692;53.714;11.372;2023-03-04T00:47:06;101267.47;;;3.04;100.00
61786;BME280;47692;53.714;11.372;2023-03-04T00:49:32;101264.09;;;3.08;100.00
61786;BME280;47692;53.714;11.372;2023-03-04T00:51:57;101261.47;;;3.03;100.00
61786;BME280;47692;53.714;11.372;2023-03-04T00:54:22;101257.16;;;3.04;100.00
61786;BME280;47692;53.714;11.372;2023-03-04T00:56:48;101258.84;;;3.02;100.00
61786;BME280;47692;53.714;11.372;2023-03-04T00:59:13;101253.75;;;3.05;100.00
61786;BME280;47692;53.714;11.372;2023-03-04T01:01:38;101257.16;;;3.02;100.00
61786;BME280;47692;53.714;11.372;2023-03-04T01:04:04;101256.31;;;3.03;100.00
61786;BME280;47692;53.714;11.372;2023-03-04T01:06:29;101255.53;;;3.09;100.00
61786;BME280;47692;53.714;11.372;2023-03-04T01:08:54;101257.19;;;3.07;100.00
61786;BME280;47692;53.714;11.372;2023-03-04T01:11:20;101257.19;;;3.07;100.00
61786;BME280;47692;53.714;11.372;2023-03-04T01:13:45;101262.31;;;3.04;100.00
61786;BME280;47692;53.714;11.372;2023-03-04T01:16:10;101264.09;;;3.08;100.00
61786;BME280;47692;53.714;11.372;2023-03-04T01:18:37;101255.63;;;3.15;100.00
61786;BME280;47692;53.714;11.372;2023-03-04T01:21:02;101248.72;;;3.14;100.00
61786;BME280;47692;53.714;11.372;2023-03-04T01:23:28;101247.06;;;3.19;100.00
61786;BME280;47692;53.714;11.372;2023-03-04T01:25:53;101246.25;;;3.20;100.00
61786;BME280;47692;53.714;11.372;2023-03-04T01:28:18;101248.06;;;3.26;100.00
61786;BME280;47692;53.714;11.372;2023-03-04T01:30:44;101248.09;;;3.28;100.00
61786;BME280;47692;53.714;11.372;2023-03-04T01:33:09;101239.53;;;3.32;100.00
61786;BME280;47692;53.714;11.372;2023-03-04T01:35:34;101223.19;;;3.30;100.00
61786;BME280;47692;53.714;11.372;2023-03-04T01:38:00;101230.09;;;3.34;100.00
61786;BME280;47692;53.714;11.372;2023-03-04T01:40:25;101241.28;;;3.33;100.00
61786;BME280;47692;53.714;11.372;2023-03-04T01:42:51;101225.03;;;3.40;100.00
61786;BME280;47692;53.714;11.372;2023-03-04T01:45:18;101226.78;;;3.41;100.00
61786;BME280;47692;53.714;11.372;2023-03-04T01:47:46;101219.88;;;3.40;100.00
61786;BME280;47692;53.714;11.372;2023-03-04T01:50:20;101208.75;;;3.44;100.00
61786;BME280;47692;53.714;11.372;2023-03-04T01:52:46;101217.31;;;3.42;100.00
61786;BME280;47692;53.714;11.372;2023-03-04T01:55:17;101219.03;;;3.41;100.00
61786;BME280;47692;53.714;11.372;2023-03-04T01:57:43;101216.50;;;3.44;100.00
61786;BME280;47692;53.714;11.372;2023-03-04T02:00:20;101213.03;;;3.42;100.00
61786;BME280;47692;53.714;11.372;2023-03-04T02:02:49;101215.66;;;3.47;100.00
61786;BME280;47692;53.714;11.372;2023-03-04T02:05:15;101203.72;;;3.52;100.00
61786;BME280;47692;53.714;11.372;2023-03-04T02:07:41;101209.72;;;3.52;100.00
61786;BME280;47692;53.714;11.372;2023-03-04T02:10:08;101207.06;;;3.48;100.00
61786;BME280;47692;53.714;11.372;2023-03-04T02:12:33;101195.91;;;3.50;100.00
61786;BME280;47692;53.714;11.372;2023-03-04T02:14:59;101194.22;;;3.51;100.00
61786;BME280;47692;53.714;11.372;2023-03-04T02:17:25;101183.00;;;3.50;100.00
61786;BME280;47692;53.714;11.372;2023-03-04T02:20:07;101186.47;;;3.51;100.00
61786;BME280;47692;53.714;11.372;2023-03-04T02:22:45;101192.50;;;3.51;100.00
61786;BME280;47692;53.714;11.372;2023-03-04T02:25:21;101184.84;;;3.59;100.00
61786;BME280;47692;53.714;11.372;2023-03-04T02:27:48;101186.59;;;3.60;100.00
61786;BME280;47692;53.714;11.372;2023-03-04T02:30:13;101189.16;;;3.59;100.00
61786;BME280;47692;53.714;11.372;2023-03-04T02:32:39;101186.66;;;3.65;100.00
61786;BME280;47692;53.714;11.372;2023-03-04T02:35:05;101182.34;;;3.64;100.00
61786;BME280;47692;53.714;11.372;2023-03-04T02:37:31;101173.75;;;3.66;100.00
61786;BME280;47692;53.714;11.372;2023-03-04T02:39:56;101178.91;;;3.65;100.00
61786;BME280;47692;53.714;11.372;2023-03-04T02:42:22;101172.06;;;3.67;100.00
61786;BME280;47692;53.714;11.372;2023-03-04T02:44:47;101175.50;;;3.69;100.00
61786;BME280;47692;53.714;11.372;2023-03-04T02:47:16;101172.09;;;3.70;100.00
61786;BME280;47692;53.714;11.372;2023-03-04T02:49:42;101178.94;;;3.68;100.00
61786;BME280;47692;53.714;11.372;2023-03-04T02:52:09;101170.34;;;3.69;100.00
61786;BME280;47692;53.714;11.372;2023-03-04T02:54:36;101153.13;;;3.68;100.00
61786;BME280;47692;53.714;11.372;2023-03-04T02:57:04;101154.00;;;3.68;100.00
61786;BME280;47692;53.714;11.372;2023-03-04T02:59:29;101154.91;;;3.72;100.00
61786;BME280;47692;53.714;11.372;2023-03-04T03:01:55;101156.66;;;3.73;100.00
61786;BME280;47692;53.714;11.372;2023-03-04T03:04:21;101159.22;;;3.73;100.00
61786;BME280;47692;53.714;11.372;2023-03-04T03:06:47;101158.34;;;3.74;100.00
61786;BME280;47692;53.714;11.372;2023-03-04T03:09:12;101157.44;;;3.70;100.00
61786;BME280;47692;53.714;11.372;2023-03-04T03:11:38;101155.69;;;3.66;100.00
61786;BME280;47692;53.714;11.372;2023-03-04T03:14:04;101146.19;;;3.62;100.00
61786;BME280;47692;53.714;11.372;2023-03-04T03:16:30;101146.25;;;3.67;100.00
61786;BME280;47692;53.714;11.372;2023-03-04T03:18:55;101142.78;;;3.68;100.00
61786;BME280;47692;53.714;11.372;2023-03-04T03:21:20;101138.44;;;3.64;100.00
61786;BME280;47692;53.714;11.372;2023-03-04T03:23:46;101134.94;;;3.59;100.00
61786;BME280;47692;53.714;11.372;2023-03-04T03:26:11;101141.00;;;3.61;100.00
61786;BME280;47692;53.714;11.372;2023-03-04T03:28:37;101137.47;;;3.55;100.00
61786;BME280;47692;53.714;11.372;2023-03-04T03:31:02;101134.03;;;3.55;100.00
61786;BME280;47692;53.714;11.372;2023-03-04T03:33:28;101137.44;;;3.52;100.00
61786;BME280;47692;53.714;11.372;2023-03-04T03:35:53;101133.97;;;3.50;100.00
61786;BME280;47692;53.714;11.372;2023-03-04T03:38:18;101125.38;;;3.51;100.00
61786;BME280;47692;53.714;11.372;2023-03-04T03:40:44;101121.88;;;3.48;100.00
61786;BME280;47692;53.714;11.372;2023-03-04T03:43:09;101118.38;;;3.44;100.00
61786;BME280;47692;53.714;11.372;2023-03-04T03:45:34;101127.03;;;3.45;100.00
61786;BME280;47692;53.714;11.372;2023-03-04T03:48:00;101118.38;;;3.44;100.00
61786;BME280;47692;53.714;11.372;2023-03-04T03:50:25;101121.84;;;3.43;100.00
61786;BME280;47692;53.714;11.372;2023-03-04T03:52:50;101116.69;;;3.43;100.00
61786;BME280;47692;53.714;11.372;2023-03-04T03:55:16;101112.31;;;3.40;100.00
61786;BME280;47692;53.714;11.372;2023-03-04T03:57:41;101104.56;;;3.40;100.00
61786;BME280;47692;53.714;11.372;2023-03-04T04:00:07;101108.91;;;3.42;100.00
61786;BME280;47692;53.714;11.372;2023-03-04T04:02:33;101106.34;;;3.43;100.00
61786;BME280;47692;53.714;11.372;2023-03-04T04:04:58;101111.53;;;3.43;100.00
61786;BME280;47692;53.714;11.372;2023-03-04T04:07:24;101104.63;;;3.45;100.00
61786;BME280;47692;53.714;11.372;2023-03-04T04:09:49;101102.88;;;3.41;100.00
61786;BME280;47692;53.714;11.372;2023-03-04T04:12:15;101106.38;;;3.46;100.00
61786;BME280;47692;53.714;11.372;2023-03-04T04:14:41;101096.06;;;3.46;100.00
61786;BME280;47692;53.714;11.372;2023-03-04T04:17:08;101096.13;;;3.52;100.00
61786;BME280;47692;53.714;11.372;2023-03-04T04:19:33;101091.81;;;3.53;100.00
61786;BME280;47692;53.714;11.372;2023-03-04T04:21:59;101103.94;;;3.59;100.00
61786;BME280;47692;53.714;11.372;2023-03-04T04:24:24;101106.53;;;3.59;100.00
61786;BME280;47692;53.714;11.372;2023-03-04T04:26:50;101109.13;;;3.62;100.00
61786;BME280;47692;53.714;11.372;2023-03-04T04:29:15;101104.03;;;3.63;100.00
61786;BME280;47692;53.714;11.372;2023-03-04T04:31:41;101098.03;;;3.69;100.00
61786;BME280;47692;53.714;11.372;2023-03-04T04:34:06;101102.38;;;3.71;100.00
61786;BME280;47692;53.714;11.372;2023-03-04T04:36:31;101108.44;;;3.75;100.00
61786;BME280;47692;53.714;11.372;2023-03-04T04:38:57;101100.63;;;3.70;100.00
61786;BME280;47692;53.714;11.372;2023-03-04T04:41:25;101100.63;;;3.70;100.00
61786;BME280;47692;53.714;11.372;2023-03-04T04:43:51;101098.09;;;3.72;100.00
61786;BME280;47692;53.714;11.372;2023-03-04T04:46:17;101086.03;;;3.71;100.00
61786;BME280;47692;53.714;11.372;2023-03-04T04:48:43;101092.94;;;3.72;100.00
61786;BME280;47692;53.714;11.372;2023-03-04T04:51:08;101091.13;;;3.68;100.00
61786;BME280;47692;53.714;11.372;2023-03-04T04:53:34;101080.84;;;3.69;100.00
61786;BME280;47692;53.714;11.372;2023-03-04T04:55:59;101087.72;;;3.69;100.00
61786;BME280;47692;53.714;11.372;2023-03-04T04:58:24;101089.44;;;3.67;100.00
61786;BME280;47692;53.714;11.372;2023-03-04T05:00:50;101089.38;;;3.64;100.00
61786;BME280;47692;53.714;11.372;2023-03-04T05:03:15;101092.88;;;3.69;100.00
61786;BME280;47692;53.714;11.372;2023-03-04T05:05:41;101092.03;;;3.68;100.00
61786;BME280;47692;53.714;11.372;2023-03-04T05:08:06;101089.44;;;3.67;100.00
61786;BME280;47692;53.714;11.372;2023-03-04T05:10:31;101075.63;;;3.68;100.00
61786;BME280;47692;53.714;11.372;2023-03-04T05:12:57;101084.25;;;3.67;100.00
61786;BME280;47692;53.714;11.372;2023-03-04T05:15:22;101081.69;;;3.67;100.00
61786;BME280;47692;53.714;11.372;2023-03-04T05:17:47;101077.38;;;3.67;100.00
61786;BME280;47692;53.714;11.372;2023-03-04T05:20:12;101086.03;;;3.71;100.00
61786;BME280;47692;53.714;11.372;2023-03-04T05:22:38;101084.34;;;3.73;97.90
61786;BME280;47692;53.714;11.372;2023-03-04T05:25:04;101079.97;;;3.70;95.95
61786;BME280;47692;53.714;11.372;2023-03-04T05:27:29;101091.19;;;3.71;95.42
61786;BME280;47692;53.714;11.372;2023-03-04T05:29:55;101079.97;;;3.69;94.93
61786;BME280;47692;53.714;11.372;2023-03-04T05:32:23;101086.88;;;3.71;94.83
61786;BME280;47692;53.714;11.372;2023-03-04T05:34:49;101083.38;;;3.68;94.73
61786;BME280;47692;53.714;11.372;2023-03-04T05:37:14;101091.13;;;3.65;95.73
61786;BME280;47692;53.714;11.372;2023-03-04T05:39:39;101090.28;;;3.67;95.68
61786;BME280;47692;53.714;11.372;2023-03-04T05:42:04;101086.78;;;3.62;95.75
61786;BME280;47692;53.714;11.372;2023-03-04T05:44:30;101085.13;;;3.67;95.10
61786;BME280;47692;53.714;11.372;2023-03-04T05:46:55;101094.56;;;3.65;94.26
61786;BME280;47692;53.714;11.372;2023-03-04T05:49:20;101096.28;;;3.65;94.64
61786;BME280;47692;53.714;11.372;2023-03-04T05:51:46;101097.94;;;3.60;94.24
61786;BME280;47692;53.714;11.372;2023-03-04T05:54:11;101094.44;;;3.54;94.33
61786;BME280;47692;53.714;11.372;2023-03-04T05:56:36;101101.31;;;3.55;92.94
61786;BME280;47692;53.714;11.372;2023-03-04T05:59:01;101084.13;;;3.58;92.79
61786;BME280;47692;53.714;11.372;2023-03-04T06:01:27;101090.19;;;3.58;91.66
61786;BME280;47692;53.714;11.372;2023-03-04T06:03:52;101100.47;;;3.55;91.54
61786;BME280;47692;53.714;11.372;2023-03-04T06:06:17;101097.81;;;3.50;91.80
61786;BME280;47692;53.714;11.372;2023-03-04T06:08:43;101103.78;;;3.46;92.21
61786;BME280;47692;53.714;11.372;2023-03-04T06:11:08;101102.91;;;3.44;92.27
61786;BME280;47692;53.714;11.372;2023-03-04T06:13:33;101101.97;;;3.39;92.14
61786;BME280;47692;53.714;11.372;2023-03-04T06:15:59;101101.13;;;3.40;91.81
61786;BME280;47692;53.714;11.372;2023-03-04T06:18:26;101105.41;;;3.38;91.35
61786;BME280;47692;53.714;11.372;2023-03-04T06:20:58;101102.81;;;3.38;90.98
61786;BME280;47692;53.714;11.372;2023-03-04T06:23:24;101103.66;;;3.35;90.60
61786;BME280;47692;53.714;11.372;2023-03-04T06:25:52;101102.78;;;3.35;90.03
61786;BME280;47692;53.714;11.372;2023-03-04T06:28:17;101108.81;;;3.35;90.31
61786;BME280;47692;53.714;11.372;2023-03-04T06:30:43;101121.75;;;3.37;90.47
61786;BME280;47692;53.714;11.372;2023-03-04T06:33:08;101118.22;;;3.32;90.63
61786;BME280;47692;53.714;11.372;2023-03-04T06:35:33;101118.22;;;3.32;90.25
61786;BME280;47692;53.714;11.372;2023-03-04T06:37:58;101117.41;;;3.34;90.06
61786;BME280;47692;53.714;11.372;2023-03-04T06:40:24;101126.88;;;3.34;90.29
61786;BME280;47692;53.714;11.372;2023-03-04T06:42:49;101128.47;;;3.26;90.66
61786;BME280;47692;53.714;11.372;2023-03-04T06:45:14;101126.84;;;3.31;90.54
61786;BME280;47692;53.714;11.372;2023-03-04T06:47:40;101121.69;;;3.31;90.22
61786;BME280;47692;53.714;11.372;2023-03-04T06:50:05;101119.97;;;3.33;90.55
61786;BME280;47692;53.714;11.372;2023-03-04T06:52:31;101124.28;;;3.32;90.29
61786;BME280;47692;53.714;11.372;2023-03-04T06:54:56;101123.38;;;3.32;90.40
61786;BME280;47692;53.714;11.372;2023-03-04T06:57:21;101123.38;;;3.32;90.61
61786;BME280;47692;53.714;11.372;2023-03-04T06:59:47;101127.69;;;3.30;90.50
61786;BME280;47692;53.714;11.372;2023-03-04T07:02:12;101129.38;;;3.29;90.84
61786;BME280;47692;53.714;11.372;2023-03-04T07:04:38;101125.09;;;3.30;90.62
61786;BME280;47692;53.714;11.372;2023-03-04T07:07:03;101130.28;;;3.33;90.69
61786;BME280;47692;53.714;11.372;2023-03-04T07:09:28;101126.88;;;3.34;90.76
61786;BME280;47692;53.714;11.372;2023-03-04T07:11:54;101132.97;;;3.40;91.36
61786;BME280;47692;53.714;11.372;2023-03-04T07:14:19;101138.19;;;3.44;91.89
61786;BME280;47692;53.714;11.372;2023-03-04T07:16:44;101143.34;;;3.44;91.14
61786;BME280;47692;53.714;11.372;2023-03-04T07:19:10;101144.22;;;3.44;91.25
61786;BME280;47692;53.714;11.372;2023-03-04T07:21:35;101149.34;;;3.41;90.82
61786;BME280;47692;53.714;11.372;2023-03-04T07:24:02;101145.91;;;3.42;90.83
61786;BME280;47692;53.714;11.372;2023-03-04T07:26:27;101138.19;;;3.45;90.16
61786;BME280;47692;53.714;11.372;2023-03-04T07:28:52;101131.38;;;3.50;88.99
61786;BME280;47692;53.714;11.372;2023-03-04T07:31:26;101138.28;;;3.50;89.17
61786;BME280;47692;53.714;11.372;2023-03-04T07:33:56;101145.19;;;3.52;89.47
61786;BME280;47692;53.714;11.372;2023-03-04T07:36:21;101139.16;;;3.52;88.81
61786;BME280;47692;53.714;11.372;2023-03-04T07:38:48;101148.69;;;3.58;88.57
61786;BME280;47692;53.714;11.372;2023-03-04T07:41:14;101145.22;;;3.55;88.35
61786;BME280;47692;53.714;11.372;2023-03-04T07:43:40;101142.63;;;3.55;87.55
61786;BME280;47692;53.714;11.372;2023-03-04T07:46:06;101140.91;;;3.54;86.53
61786;BME280;47692;53.714;11.372;2023-03-04T07:48:31;101151.19;;;3.51;86.06
61786;BME280;47692;53.714;11.372;2023-03-04T07:53:31;101138.34;;;3.54;84.98
61786;BME280;47692;53.714;11.372;2023-03-04T07:55:56;101144.28;;;3.50;84.61
61786;BME280;47692;53.714;11.372;2023-03-04T07:58:22;101152.94;;;3.55;83.82
61786;BME280;47692;53.714;11.372;2023-03-04T08:00:47;101141.78;;;3.55;83.11
61786;BME280;47692;53.714;11.372;2023-03-04T08:03:12;101146.03;;;3.51;82.52
61786;BME280;47692;53.714;11.372;2023-03-04T08:05:38;101142.53;;;3.49;82.71
61786;BME280;47692;53.714;11.372;2023-03-04T08:08:03;101144.28;;;3.50;82.37
61786;BME280;47692;53.714;11.372;2023-03-04T08:10:29;101149.44;;;3.50;82.21
61786;BME280;47692;53.714;11.372;2023-03-04T08:12:54;101151.19;;;3.51;82.65
61786;BME280;47692;53.714;11.372;2023-03-04T08:15:19;101151.25;;;3.54;82.00
61786;BME280;47692;53.714;11.372;2023-03-04T08:17:45;101159.00;;;3.54;82.19
61786;BME280;47692;53.714;11.372;2023-03-04T08:20:10;101153.78;;;3.53;82.24
61786;BME280;47692;53.714;11.372;2023-03-04T08:22:36;101162.41;;;3.52;81.82
61786;BME280;47692;53.714;11.372;2023-03-04T08:25:01;101155.53;;;3.55;81.58
61786;BME280;47692;53.714;11.372;2023-03-04T08:27:27;101158.13;;;3.55;81.72
61786;BME280;47692;53.714;11.372;2023-03-04T08:29:52;101163.28;;;3.55;82.19
61786;BME280;47692;53.714;11.372;2023-03-04T08:32:17;101159.91;;;3.60;82.85
61786;BME280;47692;53.714;11.372;2023-03-04T08:34:43;101155.66;;;3.63;82.71
61786;BME280;47692;53.714;11.372;2023-03-04T08:37:08;101156.56;;;3.67;82.67
61786;BME280;47692;53.714;11.372;2023-03-04T08:39:33;101157.41;;;3.66;82.02
61786;BME280;47692;53.714;11.372;2023-03-04T08:42:00;101160.81;;;3.63;81.21
61786;BME280;47692;53.714;11.372;2023-03-04T08:44:25;101168.59;;;3.65;80.88
61786;BME280;47692;53.714;11.372;2023-03-04T08:46:51;101166.84;;;3.64;81.83
61786;BME280;47692;53.714;11.372;2023-03-04T08:49:16;101165.94;;;3.62;82.28
61786;BME280;47692;53.714;11.372;2023-03-04T08:51:41;101159.03;;;3.59;82.33
61786;BME280;47692;53.714;11.372;2023-03-04T08:54:08;101165.09;;;3.63;82.40
61786;BME280;47692;53.714;11.372;2023-03-04T08:56:34;101161.69;;;3.64;82.40
61786;BME280;47692;53.714;11.372;2023-03-04T08:58:59;101160.84;;;3.66;82.06
61786;BME280;47692;53.714;11.372;2023-03-04T09:01:24;101163.44;;;3.68;81.45
61786;BME280;47692;53.714;11.372;2023-03-04T09:03:50;101170.44;;;3.75;81.95
61786;BME280;47692;53.714;11.372;2023-03-04T09:06:16;101171.28;;;3.74;81.96
61786;BME280;47692;53.714;11.372;2023-03-04T09:08:43;101167.00;;;3.76;82.91
61786;BME280;47692;53.714;11.372;2023-03-04T09:11:08;101169.66;;;3.81;83.24
61786;BME280;47692;53.714;11.372;2023-03-04T09:13:34;101175.59;;;3.75;82.64
61786;BME280;47692;53.714;11.372;2023-03-04T09:16:00;101166.91;;;3.70;82.36
61786;BME280;47692;53.714;11.372;2023-03-04T09:18:27;101172.06;;;3.67;82.33
61786;BME280;47692;53.714;11.372;2023-03-04T09:20:52;101171.19;;;3.66;82.34
61786;BME280;47692;53.714;11.372;2023-03-04T09:23:18;101171.06;;;3.57;82.88
61786;BME280;47692;53.714;11.372;2023-03-04T09:25:44;101180.56;;;3.60;84.04
61786;BME280;47692;53.714;11.372;2023-03-04T09:28:11;101180.69;;;3.69;83.64
61786;BME280;47692;53.714;11.372;2023-03-04T09:30:36;101187.50;;;3.64;82.39
61786;BME280;47692;53.714;11.372;2023-03-04T09:33:02;101182.34;;;3.64;81.96
61786;BME280;47692;53.714;11.372;2023-03-04T09:35:27;101175.44;;;3.63;81.77
61786;BME280;47692;53.714;11.372;2023-03-04T09:37:57;101185.75;;;3.63;82.02
61786;BME280;47692;53.714;11.372;2023-03-04T09:40:37;101188.34;;;3.61;82.97
61786;BME280;47692;53.714;11.372;2023-03-04T09:43:06;101201.22;;;3.60;81.97
61786;BME280;47692;53.714;11.372;2023-03-04T09:45:50;101193.38;;;3.52;81.74
61786;BME280;47692;53.714;11.372;2023-03-04T09:48:21;101197.66;;;3.51;81.37
61786;BME280;47692;53.714;11.372;2023-03-04T09:51:21;101196.81;;;3.51;81.75
61786;BME280;47692;53.714;11.372;2023-03-04T09:54:08;101189.06;;;3.52;81.14
61786;BME280;47692;53.714;11.372;2023-03-04T09:56:39;101175.28;;;3.50;81.67
61786;BME280;47692;53.714;11.372;2023-03-04T10:01:57;101185.50;;;3.44;80.28
61786;BME280;47692;53.714;11.372;2023-03-04T10:07:16;101196.66;;;3.40;80.79
61786;BME280;47692;53.714;11.372;2023-03-04T10:12:21;101192.38;;;3.42;82.07
61786;BME280;47692;53.714;11.372;2023-03-04T10:14:52;101194.22;;;3.51;82.04
61786;BME280;47692;53.714;11.372;2023-03-04T10:17:28;101199.34;;;3.49;81.96
61786;BME280;47692;53.714;11.372;2023-03-04T10:20:14;101201.16;;;3.55;81.23
61786;BME280;47692;53.714;11.372;2023-03-04T10:22:50;101203.75;;;3.55;80.90
61786;BME280;47692;53.714;11.372;2023-03-04T10:25:26;101197.66;;;3.51;80.43
61786;BME280;47692;53.714;11.372;2023-03-04T10:30:31;101200.16;;;3.45;80.67
61786;BME280;47692;53.714;11.372;2023-03-04T10:33:00;101196.75;;;3.49;80.99
61786;BME280;47692;53.714;11.372;2023-03-04T10:35:33;101199.28;;;3.43;80.37
61786;BME280;47692;53.714;11.372;2023-03-04T10:38:01;101211.31;;;3.44;80.45
61786;BME280;47692;53.714;11.372;2023-03-04T10:40:28;101209.63;;;3.45;80.72
61786;BME280;47692;53.714;11.372;2023-03-04T10:42:54;101206.22;;;3.47;80.41
61786;BME280;47692;53.714;11.372;2023-03-04T10:45:23;101206.22;;;3.47;80.24
61786;BME280;47692;53.714;11.372;2023-03-04T10:47:55;101208.88;;;3.52;79.71
61786;BME280;47692;53.714;11.372;2023-03-04T10:50:26;101213.97;;;3.49;78.94
61786;BME280;47692;53.714;11.372;2023-03-04T10:52:53;101210.53;;;3.48;78.91
61786;BME280;47692;53.714;11.372;2023-03-04T10:55:26;101210.56;;;3.50;78.84
61786;BME280;47692;53.714;11.372;2023-03-04T10:58:03;101204.56;;;3.52;78.99
61786;BME280;47692;53.714;11.372;2023-03-04T11:00:34;101210.63;;;3.54;78.79
61786;BME280;47692;53.714;11.372;2023-03-04T11:05:51;101202.97;;;3.61;77.91
61786;BME280;47692;53.714;11.372;2023-03-04T11:08:20;101208.16;;;3.64;78.30
61786;BME280;47692;53.714;11.372;2023-03-04T11:10:48;101210.72;;;3.62;78.56
61786;BME280;47692;53.714;11.372;2023-03-04T11:13:20;101214.22;;;3.66;79.05
61786;BME280;47692;53.714;11.372;2023-03-04T11:16:03;101208.22;;;3.67;79.04
61786;BME280;47692;53.714;11.372;2023-03-04T11:18:49;101210.81;;;3.70;78.35
61786;BME280;47692;53.714;11.372;2023-03-04T11:21:19;101204.84;;;3.74;78.00
61786;BME280;47692;53.714;11.372;2023-03-04T11:23:58;101203.13;;;3.73;77.61
61786;BME280;47692;53.714;11.372;2023-03-04T11:26:37;101207.44;;;3.74;77.57
61786;BME280;47692;53.714;11.372;2023-03-04T11:29:33;101204.91;;;3.77;77.65
61786;BME280;47692;53.714;11.372;2023-03-04T11:32:13;101201.47;;;3.78;77.26
61786;BME280;47692;53.714;11.372;2023-03-04T11:37:29;101213.50;;;3.76;77.64
61786;BME280;47692;53.714;11.372;2023-03-04T11:42:40;101204.00;;;3.74;77.52
61786;BME280;47692;53.714;11.372;2023-03-04T11:45:14;101211.72;;;3.72;77.67
61786;BME280;47692;53.714;11.372;2023-03-04T12:01:54;101190.41;;;3.88;80.42
61786;BME280;47692;53.714;11.372;2023-03-04T12:04:58;101195.56;;;3.87;79.65
61786;BME280;47692;53.714;11.372;2023-03-04T12:10:46;101193.06;;;3.93;80.33
61786;BME280;47692;53.714;11.372;2023-03-04T12:13:26;101200.81;;;3.96;80.74
61786;BME280;47692;53.714;11.372;2023-03-04T12:21:49;101192.25;;;3.99;80.81
61786;BME280;47692;53.714;11.372;2023-03-04T12:24:46;101187.06;;;3.99;80.32
61786;BME280;47692;53.714;11.372;2023-03-04T12:27:56;101188.00;;;4.04;80.12
61786;BME280;47692;53.714;11.372;2023-03-04T12:33:15;101177.91;;;4.26;79.62
61786;BME280;47692;53.714;11.372;2023-03-04T12:38:56;101177.50;;;4.72;79.22
61786;BME280;47692;53.714;11.372;2023-03-04T12:44:09;101172.47;;;4.93;76.85
61786;BME280;47692;53.714;11.372;2023-03-04T12:49:40;101166.19;;;4.62;76.86
61786;BME280;47692;53.714;11.372;2023-03-04T12:55:21;101178.03;;;4.38;77.44
61786;BME280;47692;53.714;11.372;2023-03-04T12:57:49;101179.72;;;4.33;78.10
61786;BME280;47692;53.714;11.372;2023-03-04T13:03:11;101179.59;;;4.20;79.68
61786;BME280;47692;53.714;11.372;2023-03-04T13:05:52;101177.84;;;4.19;79.72
61786;BME280;47692;53.714;11.372;2023-03-04T13:08:33;101167.59;;;4.29;80.59
61786;BME280;47692;53.714;11.372;2023-03-04T13:11:31;101169.44;;;4.39;80.53
61786;BME280;47692;53.714;11.372;2023-03-04T13:16:43;101165.16;;;4.43;78.26
61786;BME280;47692;53.714;11.372;2023-03-04T13:22:34;101166.03;;;4.43;77.84
61786;BME280;47692;53.714;11.372;2023-03-04T13:25:48;101169.44;;;4.42;79.74
61786;BME280;47692;53.714;11.372;2023-03-04T13:28:30;101165.19;;;4.46;79.90
61786;BME280;47692;53.714;11.372;2023-03-04T13:36:24;101171.47;;;4.74;78.57
61786;BME280;47692;53.714;11.372;2023-03-04T13:39:22;101160.97;;;4.59;79.07
61786;BME280;47692;53.714;11.372;2023-03-04T13:41:49;101166.06;;;4.46;78.49
61786;BME280;47692;53.714;11.372;2023-03-04T13:44:35;101172.75;;;4.29;78.78
61786;BME280;47692;53.714;11.372;2023-03-04T13:47:29;101167.53;;;4.23;79.88
61786;BME280;47692;53.714;11.372;2023-03-04T13:52:56;101167.50;;;4.19;81.26
61786;BME280;47692;53.714;11.372;2023-03-04T13:55:38;101168.28;;;4.14;80.99
61786;BME280;47692;53.714;11.372;2023-03-04T13:58:17;101160.44;;;4.03;80.11
61786;BME280;47692;53.714;11.372;2023-03-04T14:00:50;101167.53;;;4.23;80.18
61786;BME280;47692;53.714;11.372;2023-03-04T14:03:22;101158.91;;;4.20;79.95
61786;BME280;47692;53.714;11.372;2023-03-04T14:06:14;101159.81;;;4.26;79.89
61786;BME280;47692;53.714;11.372;2023-03-04T14:08:40;101152.34;;;4.55;79.54